sensor_id;sensor_type;location;lat;lon;timestamp;P1;P2;P0
36453;PMS5003;22478;51.740;-1.314;2023-05-14T00:00:07;91;81;
36453;PMS5003;22478;51.740;-1.314;2023-05-14T00:02:35;78;72;
36453;PMS5003;22478;51.740;-1.314;2023-05-14T00:05:03;85;80;
36453;PMS5003;22478;51.740;-1.314;2023-05-14T00:07:30;72;68;
36453;PMS5003;22478;51.740;-1.314;2023-05-14T00:09:58;65;61;
36453;PMS5003;22478;51.740;-1.314;2023-05-14T00:12:26;71;62;
36453;PMS5003;22478;51.740;-1.314;2023-05-14T00:14:53;62;59;
36453;PMS5003;22478;51.740;-1.314;2023-05-14T00:17:21;65;58;
36453;PMS5003;22478;51.740;-1.314;2023-05-14T00:19:48;62;54;
36453;PMS5003;22478;51.740;-1.314;2023-05-14T00:22:15;91;84;
36453;PMS5003;22478;51.740;-1.314;2023-05-14T00:24:43;91;78;
36453;PMS5003;22478;51.740;-1.314;2023-05-14T00:27:10;98;89;
36453;PMS5003;22478;51.740;-1.314;2023-05-14T00:29:37;81;75;
36453;PMS5003;22478;51.740;-1.314;2023-05-14T00:32:04;93;91;
36453;PMS5003;22478;51.740;-1.314;2023-05-14T00:34:32;101;95;
36453;PMS5003;22478;51.740;-1.314;2023-05-14T00:37:00;127;116;
36453;PMS5003;22478;51.740;-1.314;2023-05-14T00:39:28;117;113;
36453;PMS5003;22478;51.740;-1.314;2023-05-14T00:41:55;120;115;
36453;PMS5003;22478;51.740;-1.314;2023-05-14T00:44:22;120;110;
36453;PMS5003;22478;51.740;-1.314;2023-05-14T00:46:50;117;115;
36453;PMS5003;22478;51.740;-1.314;2023-05-14T00:49:18;124;117;
36453;PMS5003;22478;51.740;-1.314;2023-05-14T00:51:46;134;119;
36453;PMS5003;22478;51.740;-1.314;2023-05-14T00:54:13;122;113;
36453;PMS5003;22478;51.740;-1.314;2023-05-14T00:56:41;116;108;
36453;PMS5003;22478;51.740;-1.314;2023-05-14T00:59:10;132;124;
36453;PMS5003;22478;51.740;-1.314;2023-05-14T01:01:37;123;118;
36453;PMS5003;22478;51.740;-1.314;2023-05-14T01:04:04;119;112;
36453;PMS5003;22478;51.740;-1.314;2023-05-14T01:09:25;105;95;
36453;PMS5003;22478;51.740;-1.314;2023-05-14T01:12:04;126;115;
36453;PMS5003;22478;51.740;-1.314;2023-05-14T01:14:39;126;118;
36453;PMS5003;22478;51.740;-1.314;2023-05-14T01:17:15;123;115;
36453;PMS5003;22478;51.740;-1.314;2023-05-14T01:19:43;118;114;
36453;PMS5003;22478;51.740;-1.314;2023-05-14T01:22:11;122;111;
36453;PMS5003;22478;51.740;-1.314;2023-05-14T01:24:39;117;109;
36453;PMS5003;22478;51.740;-1.314;2023-05-14T01:27:09;125;118;
36453;PMS5003;22478;51.740;-1.314;2023-05-14T01:29:44;130;117;
36453;PMS5003;22478;51.740;-1.314;2023-05-14T01:32:15;124;115;
36453;PMS5003;22478;51.740;-1.314;2023-05-14T01:34:43;110;101;
36453;PMS5003;22478;51.740;-1.314;2023-05-14T01:37:12;131;112;
36453;PMS5003;22478;51.740;-1.314;2023-05-14T01:39:41;111;107;
36453;PMS5003;22478;51.740;-1.314;2023-05-14T01:42:08;133;118;
36453;PMS5003;22478;51.740;-1.314;2023-05-14T01:44:36;120;112;
36453;PMS5003;22478;51.740;-1.314;2023-05-14T01:47:03;125;119;
36453;PMS5003;22478;51.740;-1.314;2023-05-14T01:49:31;121;114;
36453;PMS5003;22478;51.740;-1.314;2023-05-14T01:51:59;118;105;
36453;PMS5003;22478;51.740;-1.314;2023-05-14T01:54:26;113;102;
36453;PMS5003;22478;51.740;-1.314;2023-05-14T01:56:53;101;93;
36453;PMS5003;22478;51.740;-1.314;2023-05-14T01:59:20;86;73;
36453;PMS5003;22478;51.740;-1.314;2023-05-14T02:01:47;93;82;
36453;PMS5003;22478;51.740;-1.314;2023-05-14T02:04:14;98;87;
36453;PMS5003;22478;51.740;-1.314;2023-05-14T02:06:41;117;109;
36453;PMS5003;22478;51.740;-1.314;2023-05-14T02:09:08;110;103;
36453;PMS5003;22478;51.740;-1.314;2023-05-14T02:11:36;124;114;
36453;PMS5003;22478;51.740;-1.314;2023-05-14T02:14:03;114;106;
36453;PMS5003;22478;51.740;-1.314;2023-05-14T02:16:31;121;107;
36453;PMS5003;22478;51.740;-1.314;2023-05-14T02:18:58;110;102;
36453;PMS5003;22478;51.740;-1.314;2023-05-14T02:21:26;126;119;
36453;PMS5003;22478;51.740;-1.314;2023-05-14T02:23:53;131;124;
36453;PMS5003;22478;51.740;-1.314;2023-05-14T02:26:20;141;128;
36453;PMS5003;22478;51.740;-1.314;2023-05-14T02:28:47;136;126;
36453;PMS5003;22478;51.740;-1.314;2023-05-14T02:31:14;134;127;
36453;PMS5003;22478;51.740;-1.314;2023-05-14T02:33:42;134;121;
36453;PMS5003;22478;51.740;-1.314;2023-05-14T02:36:09;135;122;
36453;PMS5003;22478;51.740;-1.314;2023-05-14T02:38:37;129;120;
36453;PMS5003;22478;51.740;-1.314;2023-05-14T02:41:04;125;119;
36453;PMS5003;22478;51.740;-1.314;2023-05-14T02:43:31;126;115;
36453;PMS5003;22478;51.740;-1.314;2023-05-14T02:45:58;135;122;
36453;PMS5003;22478;51.740;-1.314;2023-05-14T02:48:25;125;117;
36453;PMS5003;22478;51.740;-1.314;2023-05-14T02:50:53;121;111;
36453;PMS5003;22478;51.740;-1.314;2023-05-14T02:53:20;136;126;
36453;PMS5003;22478;51.740;-1.314;2023-05-14T02:55:47;129;122;
36453;PMS5003;22478;51.740;-1.314;2023-05-14T02:58:14;121;114;
36453;PMS5003;22478;51.740;-1.314;2023-05-14T03:00:41;128;116;
36453;PMS5003;22478;51.740;-1.314;2023-05-14T03:03:08;123;114;
36453;PMS5003;22478;51.740;-1.314;2023-05-14T03:05:35;129;115;
36453;PMS5003;22478;51.740;-1.314;2023-05-14T03:08:02;123;115;
36453;PMS5003;22478;51.740;-1.314;2023-05-14T03:10:29;125;116;
36453;PMS5003;22478;51.740;-1.314;2023-05-14T03:12:57;132;125;
36453;PMS5003;22478;51.740;-1.314;2023-05-14T03:15:24;123;114;
36453;PMS5003;22478;51.740;-1.314;2023-05-14T03:17:51;115;111;
36453;PMS5003;22478;51.740;-1.314;2023-05-14T03:20:19;127;118;
36453;PMS5003;22478;51.740;-1.314;2023-05-14T03:22:46;124;118;
36453;PMS5003;22478;51.740;-1.314;2023-05-14T03:25:14;123;115;
36453;PMS5003;22478;51.740;-1.314;2023-05-14T03:27:41;111;107;
36453;PMS5003;22478;51.740;-1.314;2023-05-14T03:30:08;124;115;
36453;PMS5003;22478;51.740;-1.314;2023-05-14T03:32:37;110;106;
36453;PMS5003;22478;51.740;-1.314;2023-05-14T03:35:04;125;114;
36453;PMS5003;22478;51.740;-1.314;2023-05-14T03:37:33;122;109;
36453;PMS5003;22478;51.740;-1.314;2023-05-14T03:40:00;127;117;
36453;PMS5003;22478;51.740;-1.314;2023-05-14T03:42:27;118;116;
36453;PMS5003;22478;51.740;-1.314;2023-05-14T03:44:55;138;125;
36453;PMS5003;22478;51.740;-1.314;2023-05-14T03:47:21;135;121;
36453;PMS5003;22478;51.740;-1.314;2023-05-14T03:49:48;139;128;
36453;PMS5003;22478;51.740;-1.314;2023-05-14T03:52:16;151;129;
36453;PMS5003;22478;51.740;-1.314;2023-05-14T03:54:43;126;116;
36453;PMS5003;22478;51.740;-1.314;2023-05-14T03:57:10;129;123;
36453;PMS5003;22478;51.740;-1.314;2023-05-14T03:59:37;141;128;
36453;PMS5003;22478;51.740;-1.314;2023-05-14T04:02:04;141;124;
36453;PMS5003;22478;51.740;-1.314;2023-05-14T04:04:31;134;120;
36453;PMS5003;22478;51.740;-1.314;2023-05-14T04:06:58;143;128;
36453;PMS5003;22478;51.740;-1.314;2023-05-14T04:09:26;145;125;
36453;PMS5003;22478;51.740;-1.314;2023-05-14T04:11:53;148;131;
36453;PMS5003;22478;51.740;-1.314;2023-05-14T04:14:20;139;137;
36453;PMS5003;22478;51.740;-1.314;2023-05-14T04:16:47;151;130;
36453;PMS5003;22478;51.740;-1.314;2023-05-14T04:19:14;137;118;
36453;PMS5003;22478;51.740;-1.314;2023-05-14T04:21:41;126;119;
36453;PMS5003;22478;51.740;-1.314;2023-05-14T04:24:08;136;116;
36453;PMS5003;22478;51.740;-1.314;2023-05-14T04:26:36;134;123;
36453;PMS5003;22478;51.740;-1.314;2023-05-14T04:29:03;124;119;
36453;PMS5003;22478;51.740;-1.314;2023-05-14T04:31:31;143;122;
36453;PMS5003;22478;51.740;-1.314;2023-05-14T04:33:59;135;121;
36453;PMS5003;22478;51.740;-1.314;2023-05-14T04:36:26;151;133;
36453;PMS5003;22478;51.740;-1.314;2023-05-14T04:38:53;135;114;
36453;PMS5003;22478;51.740;-1.314;2023-05-14T04:41:21;140;119;
36453;PMS5003;22478;51.740;-1.314;2023-05-14T04:43:48;147;122;
36453;PMS5003;22478;51.740;-1.314;2023-05-14T04:46:15;144;124;
36453;PMS5003;22478;51.740;-1.314;2023-05-14T04:48:42;137;118;
36453;PMS5003;22478;51.740;-1.314;2023-05-14T04:51:10;140;127;
36453;PMS5003;22478;51.740;-1.314;2023-05-14T04:53:37;143;128;
36453;PMS5003;22478;51.740;-1.314;2023-05-14T04:56:04;139;120;
36453;PMS5003;22478;51.740;-1.314;2023-05-14T04:58:32;137;126;
36453;PMS5003;22478;51.740;-1.314;2023-05-14T05:00:59;126;120;
36453;PMS5003;22478;51.740;-1.314;2023-05-14T05:03:26;137;130;
36453;PMS5003;22478;51.740;-1.314;2023-05-14T05:05:54;131;120;
36453;PMS5003;22478;51.740;-1.314;2023-05-14T05:08:21;126;115;
36453;PMS5003;22478;51.740;-1.314;2023-05-14T05:10:48;121;112;
36453;PMS5003;22478;51.740;-1.314;2023-05-14T05:13:16;114;107;
36453;PMS5003;22478;51.740;-1.314;2023-05-14T05:15:43;101;97;
36453;PMS5003;22478;51.740;-1.314;2023-05-14T05:18:11;89;85;
36453;PMS5003;22478;51.740;-1.314;2023-05-14T05:20:38;92;90;
36453;PMS5003;22478;51.740;-1.314;2023-05-14T05:23:05;90;84;
36453;PMS5003;22478;51.740;-1.314;2023-05-14T05:25:33;73;68;
36453;PMS5003;22478;51.740;-1.314;2023-05-14T05:28:00;65;57;
36453;PMS5003;22478;51.740;-1.314;2023-05-14T05:30:27;65;59;
36453;PMS5003;22478;51.740;-1.314;2023-05-14T05:32:54;73;63;
36453;PMS5003;22478;51.740;-1.314;2023-05-14T05:35:22;76;71;
36453;PMS5003;22478;51.740;-1.314;2023-05-14T05:37:49;74;61;
36453;PMS5003;22478;51.740;-1.314;2023-05-14T05:40:16;74;60;
36453;PMS5003;22478;51.740;-1.314;2023-05-14T05:42:43;63;58;
36453;PMS5003;22478;51.740;-1.314;2023-05-14T05:45:11;55;51;
36453;PMS5003;22478;51.740;-1.314;2023-05-14T05:47:38;68;61;
36453;PMS5003;22478;51.740;-1.314;2023-05-14T05:50:05;84;73;
36453;PMS5003;22478;51.740;-1.314;2023-05-14T05:52:33;63;58;
36453;PMS5003;22478;51.740;-1.314;2023-05-14T05:55:01;55;50;
36453;PMS5003;22478;51.740;-1.314;2023-05-14T05:57:28;61;54;
36453;PMS5003;22478;51.740;-1.314;2023-05-14T05:59:54;76;68;
36453;PMS5003;22478;51.740;-1.314;2023-05-14T06:02:21;64;56;
36453;PMS5003;22478;51.740;-1.314;2023-05-14T06:04:49;63;55;
36453;PMS5003;22478;51.740;-1.314;2023-05-14T06:07:17;79;72;
36453;PMS5003;22478;51.740;-1.314;2023-05-14T06:09:44;94;87;
36453;PMS5003;22478;51.740;-1.314;2023-05-14T06:12:11;86;75;
36453;PMS5003;22478;51.740;-1.314;2023-05-14T06:14:39;72;65;
36453;PMS5003;22478;51.740;-1.314;2023-05-14T06:17:06;73;65;
36453;PMS5003;22478;51.740;-1.314;2023-05-14T06:19:33;74;67;
36453;PMS5003;22478;51.740;-1.314;2023-05-14T06:22:01;79;66;
36453;PMS5003;22478;51.740;-1.314;2023-05-14T06:24:28;80;75;
36453;PMS5003;22478;51.740;-1.314;2023-05-14T06:26:55;74;65;
36453;PMS5003;22478;51.740;-1.314;2023-05-14T06:29:23;63;60;
36453;PMS5003;22478;51.740;-1.314;2023-05-14T06:31:51;58;53;
36453;PMS5003;22478;51.740;-1.314;2023-05-14T06:34:18;49;47;
36453;PMS5003;22478;51.740;-1.314;2023-05-14T06:36:45;53;48;
36453;PMS5003;22478;51.740;-1.314;2023-05-14T06:39:13;62;53;
36453;PMS5003;22478;51.740;-1.314;2023-05-14T06:41:40;56;50;
36453;PMS5003;22478;51.740;-1.314;2023-05-14T06:44:06;62;55;
36453;PMS5003;22478;51.740;-1.314;2023-05-14T06:46:34;62;59;
36453;PMS5003;22478;51.740;-1.314;2023-05-14T06:49:01;52;47;
36453;PMS5003;22478;51.740;-1.314;2023-05-14T06:51:29;45;40;
36453;PMS5003;22478;51.740;-1.314;2023-05-14T06:53:56;43;39;
36453;PMS5003;22478;51.740;-1.314;2023-05-14T06:56:24;57;47;
36453;PMS5003;22478;51.740;-1.314;2023-05-14T06:58:51;63;54;
36453;PMS5003;22478;51.740;-1.314;2023-05-14T07:01:19;44;40;
36453;PMS5003;22478;51.740;-1.314;2023-05-14T07:03:46;58;50;
36453;PMS5003;22478;51.740;-1.314;2023-05-14T07:06:14;58;51;
36453;PMS5003;22478;51.740;-1.314;2023-05-14T07:08:42;67;65;
36453;PMS5003;22478;51.740;-1.314;2023-05-14T07:11:09;44;37;
36453;PMS5003;22478;51.740;-1.314;2023-05-14T07:13:36;53;45;
36453;PMS5003;22478;51.740;-1.314;2023-05-14T07:16:04;46;41;
36453;PMS5003;22478;51.740;-1.314;2023-05-14T07:18:32;38;33;
36453;PMS5003;22478;51.740;-1.314;2023-05-14T07:20:59;38;33;
36453;PMS5003;22478;51.740;-1.314;2023-05-14T07:23:26;48;45;
36453;PMS5003;22478;51.740;-1.314;2023-05-14T07:25:53;39;31;
36453;PMS5003;22478;51.740;-1.314;2023-05-14T07:28:20;52;44;
36453;PMS5003;22478;51.740;-1.314;2023-05-14T07:30:47;44;39;
36453;PMS5003;22478;51.740;-1.314;2023-05-14T07:33:14;50;45;
36453;PMS5003;22478;51.740;-1.314;2023-05-14T07:35:41;39;37;
36453;PMS5003;22478;51.740;-1.314;2023-05-14T07:38:08;42;36;
36453;PMS5003;22478;51.740;-1.314;2023-05-14T07:40:36;41;34;
36453;PMS5003;22478;51.740;-1.314;2023-05-14T07:43:03;38;34;
36453;PMS5003;22478;51.740;-1.314;2023-05-14T07:45:30;40;34;
36453;PMS5003;22478;51.740;-1.314;2023-05-14T07:47:58;38;36;
36453;PMS5003;22478;51.740;-1.314;2023-05-14T07:50:25;40;35;
36453;PMS5003;22478;51.740;-1.314;2023-05-14T07:52:52;51;45;
36453;PMS5003;22478;51.740;-1.314;2023-05-14T07:55:19;43;38;
36453;PMS5003;22478;51.740;-1.314;2023-05-14T07:57:46;35;27;
36453;PMS5003;22478;51.740;-1.314;2023-05-14T08:00:14;37;33;
36453;PMS5003;22478;51.740;-1.314;2023-05-14T08:02:41;43;38;
36453;PMS5003;22478;51.740;-1.314;2023-05-14T08:05:09;56;40;
36453;PMS5003;22478;51.740;-1.314;2023-05-14T08:07:36;38;35;
36453;PMS5003;22478;51.740;-1.314;2023-05-14T08:10:03;39;34;
36453;PMS5003;22478;51.740;-1.314;2023-05-14T08:12:32;39;34;
36453;PMS5003;22478;51.740;-1.314;2023-05-14T08:15:00;38;33;
36453;PMS5003;22478;51.740;-1.314;2023-05-14T08:17:27;40;31;
36453;PMS5003;22478;51.740;-1.314;2023-05-14T08:19:55;46;37;
36453;PMS5003;22478;51.740;-1.314;2023-05-14T08:22:22;31;27;
36453;PMS5003;22478;51.740;-1.314;2023-05-14T08:24:50;31;26;
36453;PMS5003;22478;51.740;-1.314;2023-05-14T08:27:17;28;28;
36453;PMS5003;22478;51.740;-1.314;2023-05-14T08:29:44;36;33;
36453;PMS5003;22478;51.740;-1.314;2023-05-14T08:32:11;23;21;
36453;PMS5003;22478;51.740;-1.314;2023-05-14T08:34:39;27;24;
36453;PMS5003;22478;51.740;-1.314;2023-05-14T08:37:06;26;21;
36453;PMS5003;22478;51.740;-1.314;2023-05-14T08:39:34;30;25;
36453;PMS5003;22478;51.740;-1.314;2023-05-14T08:42:01;33;28;
36453;PMS5003;22478;51.740;-1.314;2023-05-14T08:44:34;25;23;
36453;PMS5003;22478;51.740;-1.314;2023-05-14T08:47:05;33;28;
36453;PMS5003;22478;51.740;-1.314;2023-05-14T08:49:36;31;28;
36453;PMS5003;22478;51.740;-1.314;2023-05-14T08:52:06;21;21;
36453;PMS5003;22478;51.740;-1.314;2023-05-14T08:54:34;27;27;
36453;PMS5003;22478;51.740;-1.314;2023-05-14T08:57:02;31;26;
36453;PMS5003;22478;51.740;-1.314;2023-05-14T08:59:29;24;21;
36453;PMS5003;22478;51.740;-1.314;2023-05-14T09:01:57;28;25;
36453;PMS5003;22478;51.740;-1.314;2023-05-14T09:04:28;27;22;
36453;PMS5003;22478;51.740;-1.314;2023-05-14T09:06:58;28;26;
36453;PMS5003;22478;51.740;-1.314;2023-05-14T09:09:27;27;26;
36453;PMS5003;22478;51.740;-1.314;2023-05-14T09:11:54;26;26;
36453;PMS5003;22478;51.740;-1.314;2023-05-14T09:14:21;24;22;
36453;PMS5003;22478;51.740;-1.314;2023-05-14T09:16:49;22;22;
36453;PMS5003;22478;51.740;-1.314;2023-05-14T09:19:17;30;28;
36453;PMS5003;22478;51.740;-1.314;2023-05-14T09:21:46;28;27;
36453;PMS5003;22478;51.740;-1.314;2023-05-14T09:24:18;27;25;
36453;PMS5003;22478;51.740;-1.314;2023-05-14T09:26:48;28;22;
36453;PMS5003;22478;51.740;-1.314;2023-05-14T09:29:17;29;26;
36453;PMS5003;22478;51.740;-1.314;2023-05-14T09:31:44;24;19;
36453;PMS5003;22478;51.740;-1.314;2023-05-14T09:34:14;29;26;
36453;PMS5003;22478;51.740;-1.314;2023-05-14T09:36:49;23;23;
36453;PMS5003;22478;51.740;-1.314;2023-05-14T09:39:19;22;21;
36453;PMS5003;22478;51.740;-1.314;2023-05-14T09:41:49;22;18;
36453;PMS5003;22478;51.740;-1.314;2023-05-14T09:44:16;31;27;
36453;PMS5003;22478;51.740;-1.314;2023-05-14T09:46:44;20;19;
36453;PMS5003;22478;51.740;-1.314;2023-05-14T09:49:12;22;20;
36453;PMS5003;22478;51.740;-1.314;2023-05-14T09:51:40;26;26;
36453;PMS5003;22478;51.740;-1.314;2023-05-14T09:54:08;25;21;
36453;PMS5003;22478;51.740;-1.314;2023-05-14T09:56:35;18;17;
36453;PMS5003;22478;51.740;-1.314;2023-05-14T09:59:03;24;20;
36453;PMS5003;22478;51.740;-1.314;2023-05-14T10:01:30;22;19;
36453;PMS5003;22478;51.740;-1.314;2023-05-14T10:03:58;21;21;
36453;PMS5003;22478;51.740;-1.314;2023-05-14T10:06:29;26;22;
36453;PMS5003;22478;51.740;-1.314;2023-05-14T10:09:01;31;29;
36453;PMS5003;22478;51.740;-1.314;2023-05-14T10:11:30;31;29;
36453;PMS5003;22478;51.740;-1.314;2023-05-14T10:14:01;23;22;
36453;PMS5003;22478;51.740;-1.314;2023-05-14T10:16:33;34;23;
36453;PMS5003;22478;51.740;-1.314;2023-05-14T10:19:04;22;19;
36453;PMS5003;22478;51.740;-1.314;2023-05-14T10:21:35;24;22;
36453;PMS5003;22478;51.740;-1.314;2023-05-14T10:24:06;24;22;
36453;PMS5003;22478;51.740;-1.314;2023-05-14T10:26:36;30;26;
36453;PMS5003;22478;51.740;-1.314;2023-05-14T10:29:05;29;27;
36453;PMS5003;22478;51.740;-1.314;2023-05-14T10:31:49;27;26;
36453;PMS5003;22478;51.740;-1.314;2023-05-14T10:34:33;25;22;
36453;PMS5003;22478;51.740;-1.314;2023-05-14T10:37:02;31;25;
36453;PMS5003;22478;51.740;-1.314;2023-05-14T10:39:46;31;26;
36453;PMS5003;22478;51.740;-1.314;2023-05-14T10:42:16;25;21;
36453;PMS5003;22478;51.740;-1.314;2023-05-14T10:44:47;25;22;
36453;PMS5003;22478;51.740;-1.314;2023-05-14T10:47:16;19;18;
36453;PMS5003;22478;51.740;-1.314;2023-05-14T10:49:44;26;22;
36453;PMS5003;22478;51.740;-1.314;2023-05-14T10:52:14;28;23;
36453;PMS5003;22478;51.740;-1.314;2023-05-14T10:54:47;24;22;
36453;PMS5003;22478;51.740;-1.314;2023-05-14T10:57:16;28;25;
36453;PMS5003;22478;51.740;-1.314;2023-05-14T10:59:45;30;27;
36453;PMS5003;22478;51.740;-1.314;2023-05-14T11:02:22;30;26;
36453;PMS5003;22478;51.740;-1.314;2023-05-14T11:04:53;24;21;
36453;PMS5003;22478;51.740;-1.314;2023-05-14T11:07:23;31;25;
36453;PMS5003;22478;51.740;-1.314;2023-05-14T11:09:56;30;28;
36453;PMS5003;22478;51.740;-1.314;2023-05-14T11:12:26;21;21;
36453;PMS5003;22478;51.740;-1.314;2023-05-14T11:14:55;29;25;
36453;PMS5003;22478;51.740;-1.314;2023-05-14T11:17:24;26;24;
36453;PMS5003;22478;51.740;-1.314;2023-05-14T11:19:51;22;21;
36453;PMS5003;22478;51.740;-1.314;2023-05-14T11:22:19;28;26;
36453;PMS5003;22478;51.740;-1.314;2023-05-14T11:24:47;23;22;
36453;PMS5003;22478;51.740;-1.314;2023-05-14T11:27:14;30;27;
36453;PMS5003;22478;51.740;-1.314;2023-05-14T11:29:43;21;21;
36453;PMS5003;22478;51.740;-1.314;2023-05-14T11:32:12;31;27;
36453;PMS5003;22478;51.740;-1.314;2023-05-14T11:34:40;33;31;
36453;PMS5003;22478;51.740;-1.314;2023-05-14T11:37:08;29;27;
36453;PMS5003;22478;51.740;-1.314;2023-05-14T11:39:37;37;33;
36453;PMS5003;22478;51.740;-1.314;2023-05-14T11:42:08;38;33;
36453;PMS5003;22478;51.740;-1.314;2023-05-14T11:44:37;33;32;
36453;PMS5003;22478;51.740;-1.314;2023-05-14T11:47:04;37;33;
36453;PMS5003;22478;51.740;-1.314;2023-05-14T11:49:33;27;26;
36453;PMS5003;22478;51.740;-1.314;2023-05-14T11:52:00;34;30;
36453;PMS5003;22478;51.740;-1.314;2023-05-14T11:54:30;35;32;
36453;PMS5003;22478;51.740;-1.314;2023-05-14T11:57:08;43;41;
36453;PMS5003;22478;51.740;-1.314;2023-05-14T11:59:37;40;39;
36453;PMS5003;22478;51.740;-1.314;2023-05-14T12:02:07;35;35;
36453;PMS5003;22478;51.740;-1.314;2023-05-14T12:04:36;38;37;
36453;PMS5003;22478;51.740;-1.314;2023-05-14T12:07:06;42;33;
36453;PMS5003;22478;51.740;-1.314;2023-05-14T12:09:35;44;40;
36453;PMS5003;22478;51.740;-1.314;2023-05-14T12:12:09;38;35;
36453;PMS5003;22478;51.740;-1.314;2023-05-14T12:14:37;40;34;
36453;PMS5003;22478;51.740;-1.314;2023-05-14T12:17:10;40;37;
36453;PMS5003;22478;51.740;-1.314;2023-05-14T12:19:38;48;43;
36453;PMS5003;22478;51.740;-1.314;2023-05-14T12:22:06;45;39;
36453;PMS5003;22478;51.740;-1.314;2023-05-14T12:24:34;44;36;
36453;PMS5003;22478;51.740;-1.314;2023-05-14T12:27:01;33;31;
36453;PMS5003;22478;51.740;-1.314;2023-05-14T12:29:29;31;28;
36453;PMS5003;22478;51.740;-1.314;2023-05-14T12:31:56;32;29;
36453;PMS5003;22478;51.740;-1.314;2023-05-14T12:34:24;39;33;
36453;PMS5003;22478;51.740;-1.314;2023-05-14T12:36:51;44;37;
36453;PMS5003;22478;51.740;-1.314;2023-05-14T12:39:19;46;33;
36453;PMS5003;22478;51.740;-1.314;2023-05-14T12:41:46;38;33;
36453;PMS5003;22478;51.740;-1.314;2023-05-14T12:44:13;46;41;
36453;PMS5003;22478;51.740;-1.314;2023-05-14T12:46:40;42;38;
36453;PMS5003;22478;51.740;-1.314;2023-05-14T12:49:07;41;37;
36453;PMS5003;22478;51.740;-1.314;2023-05-14T12:51:35;36;35;
36453;PMS5003;22478;51.740;-1.314;2023-05-14T12:54:03;38;32;
36453;PMS5003;22478;51.740;-1.314;2023-05-14T12:56:30;40;34;
36453;PMS5003;22478;51.740;-1.314;2023-05-14T12:58:58;37;31;
36453;PMS5003;22478;51.740;-1.314;2023-05-14T13:01:25;34;32;
36453;PMS5003;22478;51.740;-1.314;2023-05-14T13:03:53;36;35;
36453;PMS5003;22478;51.740;-1.314;2023-05-14T13:06:20;38;34;
36453;PMS5003;22478;51.740;-1.314;2023-05-14T13:08:48;35;31;
36453;PMS5003;22478;51.740;-1.314;2023-05-14T13:11:15;39;35;
36453;PMS5003;22478;51.740;-1.314;2023-05-14T13:13:42;33;32;
36453;PMS5003;22478;51.740;-1.314;2023-05-14T13:16:10;32;29;
36453;PMS5003;22478;51.740;-1.314;2023-05-14T13:18:37;34;32;
36453;PMS5003;22478;51.740;-1.314;2023-05-14T13:21:05;36;33;
36453;PMS5003;22478;51.740;-1.314;2023-05-14T13:23:32;34;26;
36453;PMS5003;22478;51.740;-1.314;2023-05-14T13:26:00;44;35;
36453;PMS5003;22478;51.740;-1.314;2023-05-14T13:28:27;33;30;
36453;PMS5003;22478;51.740;-1.314;2023-05-14T13:31:09;23;22;
36453;PMS5003;22478;51.740;-1.314;2023-05-14T13:33:39;31;30;
36453;PMS5003;22478;51.740;-1.314;2023-05-14T13:36:07;30;26;
36453;PMS5003;22478;51.740;-1.314;2023-05-14T13:38:36;29;29;
36453;PMS5003;22478;51.740;-1.314;2023-05-14T13:41:04;24;23;
36453;PMS5003;22478;51.740;-1.314;2023-05-14T13:43:32;24;24;
36453;PMS5003;22478;51.740;-1.314;2023-05-14T13:46:01;26;22;
36453;PMS5003;22478;51.740;-1.314;2023-05-14T13:48:29;22;22;
36453;PMS5003;22478;51.740;-1.314;2023-05-14T13:50:57;16;16;
36453;PMS5003;22478;51.740;-1.314;2023-05-14T13:53:24;21;19;
36453;PMS5003;22478;51.740;-1.314;2023-05-14T13:55:52;23;21;
36453;PMS5003;22478;51.740;-1.314;2023-05-14T13:58:19;20;17;
36453;PMS5003;22478;51.740;-1.314;2023-05-14T14:00:46;18;16;
36453;PMS5003;22478;51.740;-1.314;2023-05-14T14:03:13;19;18;
36453;PMS5003;22478;51.740;-1.314;2023-05-14T14:05:40;20;19;
36453;PMS5003;22478;51.740;-1.314;2023-05-14T14:08:07;26;22;
36453;PMS5003;22478;51.740;-1.314;2023-05-14T14:10:35;23;22;
36453;PMS5003;22478;51.740;-1.314;2023-05-14T14:13:03;25;24;
36453;PMS5003;22478;51.740;-1.314;2023-05-14T14:15:31;25;24;
36453;PMS5003;22478;51.740;-1.314;2023-05-14T14:17:58;22;20;
36453;PMS5003;22478;51.740;-1.314;2023-05-14T14:20:25;23;23;
36453;PMS5003;22478;51.740;-1.314;2023-05-14T14:22:53;24;22;
36453;PMS5003;22478;51.740;-1.314;2023-05-14T14:25:20;25;21;
36453;PMS5003;22478;51.740;-1.314;2023-05-14T14:27:47;29;25;
36453;PMS5003;22478;51.740;-1.314;2023-05-14T14:30:14;31;27;
36453;PMS5003;22478;51.740;-1.314;2023-05-14T14:32:42;27;23;
36453;PMS5003;22478;51.740;-1.314;2023-05-14T14:35:10;22;20;
36453;PMS5003;22478;51.740;-1.314;2023-05-14T14:37:39;22;20;
36453;PMS5003;22478;51.740;-1.314;2023-05-14T14:40:08;31;28;
36453;PMS5003;22478;51.740;-1.314;2023-05-14T14:42:36;20;20;
36453;PMS5003;22478;51.740;-1.314;2023-05-14T14:45:04;21;20;
36453;PMS5003;22478;51.740;-1.314;2023-05-14T14:47:32;24;21;
36453;PMS5003;22478;51.740;-1.314;2023-05-14T14:49:59;24;22;
36453;PMS5003;22478;51.740;-1.314;2023-05-14T14:52:27;23;20;
36453;PMS5003;22478;51.740;-1.314;2023-05-14T14:54:55;22;22;
36453;PMS5003;22478;51.740;-1.314;2023-05-14T14:57:22;26;23;
36453;PMS5003;22478;51.740;-1.314;2023-05-14T14:59:49;26;22;
36453;PMS5003;22478;51.740;-1.314;2023-05-14T15:02:16;25;21;
36453;PMS5003;22478;51.740;-1.314;2023-05-14T15:04:44;22;20;
36453;PMS5003;22478;51.740;-1.314;2023-05-14T15:07:11;19;18;
36453;PMS5003;22478;51.740;-1.314;2023-05-14T15:09:38;18;16;
36453;PMS5003;22478;51.740;-1.314;2023-05-14T15:12:05;17;14;
36453;PMS5003;22478;51.740;-1.314;2023-05-14T15:14:33;16;14;
36453;PMS5003;22478;51.740;-1.314;2023-05-14T15:17:01;16;14;
36453;PMS5003;22478;51.740;-1.314;2023-05-14T15:19:29;15;15;
36453;PMS5003;22478;51.740;-1.314;2023-05-14T15:21:55;14;12;
36453;PMS5003;22478;51.740;-1.314;2023-05-14T15:24:22;18;17;
36453;PMS5003;22478;51.740;-1.314;2023-05-14T15:26:50;13;13;
36453;PMS5003;22478;51.740;-1.314;2023-05-14T15:29:17;13;11;
36453;PMS5003;22478;51.740;-1.314;2023-05-14T15:31:44;9;9;
36453;PMS5003;22478;51.740;-1.314;2023-05-14T15:34:11;12;12;
36453;PMS5003;22478;51.740;-1.314;2023-05-14T15:36:38;12;10;
36453;PMS5003;22478;51.740;-1.314;2023-05-14T15:39:05;11;11;
36453;PMS5003;22478;51.740;-1.314;2023-05-14T15:41:32;13;13;
36453;PMS5003;22478;51.740;-1.314;2023-05-14T15:44:00;17;12;
36453;PMS5003;22478;51.740;-1.314;2023-05-14T15:46:27;13;13;
36453;PMS5003;22478;51.740;-1.314;2023-05-14T15:48:54;13;13;
36453;PMS5003;22478;51.740;-1.314;2023-05-14T15:51:21;10;10;
36453;PMS5003;22478;51.740;-1.314;2023-05-14T15:53:48;11;9;
36453;PMS5003;22478;51.740;-1.314;2023-05-14T15:56:15;10;10;
36453;PMS5003;22478;51.740;-1.314;2023-05-14T15:58:42;11;9;